createdAt,value
2022-09-01T00:00:03.865Z,101079.06
2022-09-01T00:02:34.298Z,101077.34
2022-09-01T00:05:04.793Z,101079.06
2022-09-01T00:07:32.059Z,101084.25
2022-09-01T00:10:00.814Z,101084.25
2022-09-01T00:12:29.455Z,101078.16
2022-09-01T00:14:56.903Z,101087.53
2022-09-01T00:17:24.048Z,101087.50
2022-09-01T00:19:51.345Z,101070.28
2022-09-01T00:22:18.514Z,101080.63
2022-09-01T00:24:45.662Z,101070.31
2022-09-01T00:27:12.949Z,101080.56
2022-09-01T00:29:43.145Z,101078.84
2022-09-01T00:32:12.084Z,101078.81
2022-09-01T00:34:39.633Z,101075.31
2022-09-01T00:37:06.792Z,101076.16
2022-09-01T00:39:34.252Z,101071.97
2022-09-01T00:42:02.356Z,101070.19
2022-09-01T00:44:31.134Z,101075.34
2022-09-01T00:46:59.934Z,101078.72
2022-09-01T00:49:35.926Z,101056.97
2022-09-01T00:52:35.493Z,101069.03
2022-09-01T00:55:11.884Z,101068.13
2022-09-01T00:57:39.946Z,101062.00
2022-09-01T01:00:13.779Z,101062.03
2022-09-01T01:02:42.070Z,101063.03
2022-09-01T01:05:12.603Z,101056.16
2022-09-01T01:07:45.969Z,101057.94
2022-09-01T01:10:16.207Z,101058.81
2022-09-01T01:12:45.108Z,101057.88
2022-09-01T01:15:14.355Z,101063.97
2022-09-01T01:17:41.575Z,101070.09
2022-09-01T01:20:30.878Z,101065.88
2022-09-01T01:23:14.006Z,101067.75
2022-09-01T01:25:52.806Z,101068.69
2022-09-01T01:28:29.385Z,101065.28
2022-09-01T01:31:02.002Z,101066.16
2022-09-01T01:33:51.709Z,101067.88
2022-09-01T01:36:21.784Z,101070.50
2022-09-01T01:38:50.684Z,101067.88
2022-09-01T01:41:19.982Z,101067.91
2022-09-01T01:43:48.679Z,101068.72
2022-09-01T01:46:19.339Z,101061.78
2022-09-01T01:48:48.861Z,101077.41
2022-09-01T01:51:21.438Z,101074.94
2022-09-01T01:53:52.918Z,101075.97
2022-09-01T01:56:25.863Z,101070.88
2022-09-01T01:58:55.665Z,101071.00
2022-09-01T02:01:25.699Z,101069.25
2022-09-01T02:03:55.048Z,101063.16
2022-09-01T02:06:25.790Z,101076.97
2022-09-01T02:08:58.484Z,101076.09
2022-09-01T02:11:27.103Z,101076.00
2022-09-01T02:13:59.165Z,101082.88
2022-09-01T02:16:28.535Z,101071.56
2022-09-01T02:18:56.943Z,101074.25
2022-09-01T02:21:25.784Z,101049.28
2022-09-01T02:24:02.607Z,101065.59
2022-09-01T02:26:38.802Z,101075.91
2022-09-01T02:29:10.364Z,101068.97
2022-09-01T02:31:41.933Z,101070.66
2022-09-01T02:34:10.925Z,101062.91
2022-09-01T02:36:47.688Z,101063.72
2022-09-01T02:39:21.194Z,101067.16
2022-09-01T02:41:48.305Z,101073.22
2022-09-01T02:44:16.083Z,101074.03
2022-09-01T02:46:45.516Z,101076.69
2022-09-01T02:49:17.802Z,101075.78
2022-09-01T02:51:47.562Z,101074.09
2022-09-01T02:54:17.430Z,101075.78
2022-09-01T02:56:48.232Z,101070.59
2022-09-01T02:59:21.945Z,101071.50
2022-09-01T03:01:52.393Z,101067.22
2022-09-01T03:04:21.028Z,101059.56
2022-09-01T03:06:49.915Z,101067.50
2022-09-01T03:09:18.875Z,101056.38
2022-09-01T03:11:50.927Z,101055.59
2022-09-01T03:14:19.283Z,101061.63
2022-09-01T03:16:46.845Z,101059.94
2022-09-01T03:19:15.286Z,101059.03
2022-09-01T03:21:46.286Z,101047.81
2022-09-01T03:24:18.536Z,101062.56
2022-09-01T03:26:49.702Z,101056.50
2022-09-01T03:29:18.714Z,101056.50
2022-09-01T03:31:46.817Z,101053.13
2022-09-01T03:34:14.204Z,101069.53
2022-09-01T03:36:50.606Z,101061.81
2022-09-01T03:39:28.055Z,101066.22
2022-09-01T03:41:58.513Z,101068.91
2022-09-01T03:44:26.873Z,101066.38
2022-09-01T03:46:53.992Z,101062.97
2022-09-01T03:49:25.269Z,101063.03
2022-09-01T03:51:55.462Z,101066.47
2022-09-01T03:54:28.097Z,101052.63
2022-09-01T03:56:55.622Z,101060.38
2022-09-01T03:59:25.728Z,101064.69
2022-09-01T04:01:52.835Z,101070.69
2022-09-01T04:04:20.666Z,101066.34
2022-09-01T04:06:47.762Z,101072.41
2022-09-01T04:09:15.585Z,101069.84
2022-09-01T04:11:47.189Z,101073.31
2022-09-01T04:14:17.042Z,101067.28
2022-09-01T04:17:04.666Z,101068.13
2022-09-01T04:19:37.233Z,101076.78
2022-09-01T04:22:05.682Z,101069.84
2022-09-01T04:24:50.782Z,101061.19
2022-09-01T04:27:18.476Z,101050.84
2022-09-01T04:29:47.137Z,101062.94
2022-09-01T04:32:16.034Z,101074.16
2022-09-01T04:34:49.808Z,101068.09
2022-09-01T04:37:21.455Z,101080.19
2022-09-01T04:39:57.942Z,101075.88
2022-09-01T04:42:29.423Z,101081.06
2022-09-01T04:45:03.164Z,101076.69
2022-09-01T04:47:42.349Z,101072.28
2022-09-01T04:50:17.985Z,101062.66
2022-09-01T04:53:07.011Z,101070.28
2022-09-01T04:55:49.944Z,101069.38
2022-09-01T04:58:20.907Z,101069.31
2022-09-01T05:00:52.569Z,101076.97
2022-09-01T05:03:22.535Z,101073.44
2022-09-01T05:06:01.384Z,101078.53
2022-09-01T05:08:29.222Z,101075.84
2022-09-01T05:11:07.724Z,101074.00
2022-09-01T05:13:40.459Z,101057.56
2022-09-01T05:16:13.516Z,101066.97
2022-09-01T05:18:48.057Z,101066.03
2022-09-01T05:21:20.152Z,101072.00
2022-09-01T05:23:49.556Z,101054.69
2022-09-01T05:26:28.708Z,101066.75
2022-09-01T05:28:58.968Z,101072.75
2022-09-01T05:31:28.819Z,101073.59
2022-09-01T05:33:58.358Z,101070.91
2022-09-01T05:36:27.010Z,101068.16
2022-09-01T05:38:57.783Z,101068.03
2022-09-01T05:41:25.524Z,101071.34
2022-09-01T05:43:57.748Z,101075.53
2022-09-01T05:46:28.566Z,101053.81
2022-09-01T05:48:57.566Z,101076.09
2022-09-01T05:51:43.927Z,101072.47
2022-09-01T05:54:14.611Z,101070.69
2022-09-01T05:56:44.355Z,101072.19
2022-09-01T05:59:24.914Z,101072.00
2022-09-01T06:02:01.143Z,101056.22
2022-09-01T06:04:30.264Z,101064.59
2022-09-01T06:07:11.824Z,101067.81
2022-09-01T06:09:49.866Z,101072.78
2022-09-01T06:12:24.070Z,101062.22
2022-09-01T06:14:54.133Z,101063.47
2022-09-01T06:17:25.571Z,101052.75
2022-09-01T06:19:57.653Z,101057.59
2022-09-01T06:22:28.439Z,101062.38
2022-09-01T06:25:01.752Z,101058.50
2022-09-01T06:27:34.052Z,101065.97
2022-09-01T06:30:01.610Z,101056.03
2022-09-01T06:32:30.703Z,101056.69
2022-09-01T06:35:00.668Z,101060.63
2022-09-01T06:37:29.072Z,101063.91
2022-09-01T06:40:02.568Z,101067.19
2022-09-01T06:42:35.394Z,101070.34
2022-09-01T06:45:02.866Z,101063.16
2022-09-01T06:47:30.150Z,101072.56
2022-09-01T06:49:59.210Z,101059.56
2022-09-01T06:52:28.147Z,101073.09
2022-09-01T06:54:56.222Z,101072.06
2022-09-01T07:00:21.250Z,101074.38
2022-09-01T07:02:55.937Z,101068.16
2022-09-01T07:14:27.086Z,101064.16
2022-09-01T07:17:22.942Z,101066.44
2022-09-01T07:19:48.834Z,101062.31
2022-09-01T07:25:11.899Z,101065.53
2022-09-01T07:27:51.093Z,101072.13
2022-09-01T07:30:24.139Z,101080.47
2022-09-01T07:32:53.951Z,101068.03
2022-09-01T07:35:22.701Z,101067.63
2022-09-01T07:43:51.554Z,101068.03
2022-09-01T07:47:19.466Z,101068.28
2022-09-01T07:50:11.360Z,101069.03
2022-09-01T07:52:28.118Z,101068.66
2022-09-01T07:54:58.265Z,101071.84
2022-09-01T07:57:25.435Z,101079.13
2022-09-01T07:59:55.713Z,101073.31
2022-09-01T08:02:40.251Z,101074.88
2022-09-01T08:05:10.219Z,101076.09
2022-09-01T08:07:55.893Z,101071.69
2022-09-01T08:10:28.471Z,101084.66
2022-09-01T08:12:57.196Z,101087.16
2022-09-01T08:16:06.476Z,101096.19
2022-09-01T08:18:14.569Z,101073.97
2022-09-01T08:20:47.613Z,101083.31
2022-09-01T08:23:41.324Z,101081.84
2022-09-01T08:26:14.208Z,101092.25
2022-09-01T08:28:45.880Z,101085.84
2022-09-01T08:31:17.813Z,101085.91
2022-09-01T08:33:47.722Z,101082.00
2022-09-01T08:36:21.409Z,101083.28
2022-09-01T08:38:51.321Z,101065.25
2022-09-01T08:41:28.593Z,101079.84
2022-09-01T08:44:03.070Z,101074.50
2022-09-01T08:46:37.661Z,101074.81
2022-09-01T08:49:26.248Z,101069.13
2022-09-01T08:52:39.029Z,101064.91
2022-09-01T08:55:26.189Z,101069.03
2022-09-01T08:57:59.826Z,101064.44
2022-09-01T09:00:42.754Z,101063.06
2022-09-01T09:03:22.900Z,101070.94
2022-09-01T09:06:20.238Z,101062.97
2022-09-01T09:09:00.956Z,101063.66
2022-09-01T09:11:45.975Z,101069.88
2022-09-01T09:14:18.754Z,101067.16
2022-09-01T09:16:51.573Z,101061.38
2022-09-01T09:19:56.582Z,101081.38
2022-09-01T09:22:23.727Z,101079.94
2022-09-01T09:24:58.529Z,101079.25
2022-09-01T09:27:36.143Z,101079.13
2022-09-01T09:30:08.289Z,101082.13
2022-09-01T09:33:46.783Z,101082.00
2022-09-01T09:35:47.962Z,101080.78
2022-09-01T09:38:24.307Z,101084.69
2022-09-01T09:41:18.330Z,101078.06
2022-09-01T09:43:56.137Z,101079.97
2022-09-01T09:46:32.170Z,101083.59
2022-09-01T09:49:21.662Z,101080.28
2022-09-01T09:52:19.345Z,101087.16
2022-09-01T09:55:22.274Z,101078.22
2022-09-01T09:57:51.234Z,101067.22
2022-09-01T10:00:24.491Z,101081.13
2022-09-01T10:03:08.089Z,101074.53
2022-09-01T10:05:37.443Z,101076.22
2022-09-01T10:08:07.566Z,101057.81
2022-09-01T10:10:38.795Z,101065.84
2022-09-01T10:13:10.980Z,101072.28
2022-09-01T10:15:40.460Z,101075.59
2022-09-01T10:18:20.643Z,101066.91
2022-09-01T10:20:57.512Z,101062.16
2022-09-01T10:23:31.175Z,101071.38
2022-09-01T10:26:24.166Z,101055.44
2022-09-01T10:29:05.156Z,101053.16
2022-09-01T10:31:33.043Z,101048.50
2022-09-01T10:34:03.327Z,101053.41
2022-09-01T10:36:37.534Z,101051.13
2022-09-01T10:39:10.664Z,101049.69
2022-09-01T10:41:53.359Z,101052.84
2022-09-01T10:44:36.545Z,101050.19
2022-09-01T10:47:30.386Z,101055.72
2022-09-01T10:50:07.457Z,101060.53
2022-09-01T10:52:43.464Z,101055.47
2022-09-01T10:55:25.098Z,101051.78
2022-09-01T10:59:40.329Z,101049.22
2022-09-01T11:04:00.644Z,101057.25
2022-09-01T11:07:12.765Z,101050.59
2022-09-01T11:09:48.633Z,101052.38
2022-09-01T11:12:29.968Z,101038.91
2022-09-01T11:15:02.899Z,101035.91
2022-09-01T11:17:57.915Z,101039.88
2022-09-01T11:20:27.264Z,101054.72
2022-09-01T11:22:57.134Z,101051.44
2022-09-01T11:25:39.533Z,101048.66
2022-09-01T11:28:31.563Z,101038.41
2022-09-01T11:31:08.941Z,101050.28
2022-09-01T11:34:03.658Z,101056.06
2022-09-01T11:36:38.005Z,101052.91
2022-09-01T11:39:19.255Z,101050.34
2022-09-01T11:41:54.477Z,101053.91
2022-09-01T11:44:41.093Z,101051.88
2022-09-01T11:47:17.438Z,101058.34
2022-09-01T11:49:52.119Z,101059.47
2022-09-01T11:52:21.680Z,101057.81
2022-09-01T11:54:50.632Z,101064.78
2022-09-01T11:57:26.185Z,101047.59
2022-09-01T11:59:53.991Z,101049.63
2022-09-01T12:02:25.811Z,101050.16
2022-09-01T12:04:55.677Z,101043.53
2022-09-01T12:07:28.042Z,101046.00
2022-09-01T12:09:55.976Z,101038.47
2022-09-01T12:12:38.758Z,101038.59
2022-09-01T12:15:18.893Z,101039.94
2022-09-01T12:17:46.948Z,101052.09
2022-09-01T12:20:29.718Z,101049.38
2022-09-01T12:22:59.225Z,101043.72
2022-09-01T12:25:30.533Z,101046.81
2022-09-01T12:28:01.162Z,101047.53
2022-09-01T12:30:28.922Z,101056.38
2022-09-01T12:35:49.774Z,101032.69
2022-09-01T12:38:28.723Z,101056.91
2022-09-01T12:40:57.783Z,101049.91
2022-09-01T12:43:39.857Z,101053.06
2022-09-01T12:46:09.387Z,101051.38
2022-09-01T12:48:40.673Z,101051.75
2022-09-01T12:51:18.574Z,101038.31
2022-09-01T12:54:11.897Z,101036.06
2022-09-01T12:56:39.446Z,101037.38
2022-09-01T12:59:26.308Z,101030.84
2022-09-01T13:02:26.978Z,101024.72
2022-09-01T13:04:54.255Z,101023.16
2022-09-01T13:07:21.394Z,101024.72
2022-09-01T13:09:48.547Z,101035.25
2022-09-01T13:12:21.416Z,101026.44
2022-09-01T13:14:49.043Z,101026.03
2022-09-01T13:17:16.527Z,101010.91
2022-09-01T13:19:43.742Z,101010.78
2022-09-01T13:22:11.280Z,101012.53
2022-09-01T13:24:40.101Z,101015.06
2022-09-01T13:27:23.953Z,101018.03
2022-09-01T13:29:51.823Z,101002.38
2022-09-01T13:32:21.875Z,101016.41
2022-09-01T13:34:51.986Z,101015.91
2022-09-01T13:37:21.395Z,101010.03
2022-09-01T13:39:49.324Z,101007.47
2022-09-01T13:42:17.060Z,101012.47
2022-09-01T13:44:44.846Z,101007.06
2022-09-01T13:50:10.288Z,101001.38
2022-09-01T13:52:40.614Z,100996.38
2022-09-01T13:55:11.023Z,101002.78
2022-09-01T13:57:38.796Z,100990.91
2022-09-01T14:00:12.163Z,100994.72
2022-09-01T14:02:43.188Z,100997.00
2022-09-01T14:05:10.763Z,100994.88
2022-09-01T14:07:38.061Z,100995.00
2022-09-01T14:10:07.551Z,100993.19
2022-09-01T14:12:35.249Z,100990.53
2022-09-01T14:15:20.583Z,100984.63
2022-09-01T14:17:52.409Z,100991.63
2022-09-01T14:20:22.965Z,100986.34
2022-09-01T14:22:50.933Z,100986.72
2022-09-01T14:25:20.476Z,100984.38
2022-09-01T14:27:49.185Z,100988.56
2022-09-01T14:30:22.592Z,100988.84
2022-09-01T14:32:50.741Z,100984.66
2022-09-01T14:35:19.553Z,100997.16
2022-09-01T14:37:47.107Z,100992.75
2022-09-01T14:40:16.822Z,100996.44
2022-09-01T14:42:49.824Z,100992.88
2022-09-01T14:45:22.613Z,100994.72
2022-09-01T14:47:51.930Z,100997.16
2022-09-01T14:50:22.913Z,100999.13
2022-09-01T14:52:54.892Z,100998.53
2022-09-01T14:55:26.573Z,101004.28
2022-09-01T14:57:54.715Z,101001.13
2022-09-01T15:00:22.687Z,100998.75
2022-09-01T15:02:49.843Z,101008.34
2022-09-01T15:05:17.450Z,101006.66
2022-09-01T15:07:45.224Z,101006.66
2022-09-01T15:10:15.892Z,101012.75
2022-09-01T15:12:51.720Z,101009.28
2022-09-01T15:15:19.203Z,101004.00
2022-09-01T15:17:46.723Z,100999.69
2022-09-01T15:20:32.766Z,100995.28
2022-09-01T15:23:01.059Z,101001.38
2022-09-01T15:25:28.238Z,100997.81
2022-09-01T15:27:55.410Z,100993.44
2022-09-01T15:30:22.776Z,100988.91
2022-09-01T15:32:52.122Z,100960.69
2022-09-01T15:35:21.517Z,100983.59
2022-09-01T15:37:50.483Z,100987.31
2022-09-01T15:40:19.529Z,100978.81
2022-09-01T15:42:47.089Z,100974.53
2022-09-01T15:45:17.941Z,100970.56
2022-09-01T15:47:48.523Z,100973.44
2022-09-01T15:50:21.872Z,100974.56
2022-09-01T15:52:51.255Z,100976.47
2022-09-01T15:55:21.328Z,100971.63
2022-09-01T15:57:48.624Z,100967.59
2022-09-01T16:00:17.613Z,100978.56
2022-09-01T16:02:45.125Z,100969.28
2022-09-01T16:05:13.569Z,100979.06
2022-09-01T16:07:41.796Z,100976.53
2022-09-01T16:10:14.031Z,100964.78
2022-09-01T16:12:44.326Z,100978.75
2022-09-01T16:15:15.880Z,100977.28
2022-09-01T16:17:57.069Z,100982.88
2022-09-01T16:20:28.895Z,100982.31
2022-09-01T16:23:07.286Z,100978.97
2022-09-01T16:25:34.798Z,100988.00
2022-09-01T16:28:10.863Z,100990.78
2022-09-01T16:30:39.211Z,100984.72
2022-09-01T16:33:20.188Z,100983.81
2022-09-01T16:36:17.375Z,100978.69
2022-09-01T16:38:59.226Z,100983.81
2022-09-01T16:41:36.422Z,100990.88
2022-09-01T16:44:22.079Z,100983.44
2022-09-01T16:47:34.706Z,100993.31
2022-09-01T16:50:26.471Z,100991.34
2022-09-01T16:53:31.313Z,100999.50
2022-09-01T16:56:10.434Z,100991.03
2022-09-01T16:59:03.726Z,100994.66
2022-09-01T17:01:53.215Z,101001.81
2022-09-01T17:04:47.782Z,101007.97
2022-09-01T17:07:26.380Z,101002.81
2022-09-01T17:10:13.221Z,101000.28
2022-09-01T17:12:52.994Z,101005.59
2022-09-01T17:15:41.223Z,101010.00
2022-09-01T17:18:26.473Z,101010.94
2022-09-01T17:21:02.585Z,101002.44
2022-09-01T17:23:38.276Z,101006.69
2022-09-01T17:26:13.691Z,101005.69
2022-09-01T17:28:52.262Z,101009.22
2022-09-01T17:31:35.855Z,101011.13
2022-09-01T17:34:46.402Z,101018.06
2022-09-01T17:37:32.877Z,101018.19
2022-09-01T17:40:18.612Z,101022.56
2022-09-01T17:43:21.777Z,101014.75
2022-09-01T17:46:20.494Z,101027.81
2022-09-01T17:48:57.320Z,101027.91
2022-09-01T17:51:43.137Z,101028.00
2022-09-01T17:54:36.846Z,101032.34
2022-09-01T17:57:52.250Z,101030.66
2022-09-01T18:00:27.837Z,101033.31
2022-09-01T18:03:22.890Z,101041.22
2022-09-01T18:06:14.748Z,101044.81
2022-09-01T18:08:44.386Z,101042.28
2022-09-01T18:11:21.593Z,101044.03
2022-09-01T18:14:12.574Z,101050.25
2022-09-01T18:17:08.276Z,101043.53
2022-09-01T18:19:46.016Z,101045.22
2022-09-01T18:22:21.208Z,101043.53
2022-09-01T18:24:58.162Z,101054.03
2022-09-01T18:27:27.780Z,101054.13
2022-09-01T18:29:57.408Z,101043.06
2022-09-01T18:32:43.215Z,101049.16
2022-09-01T18:35:34.012Z,101054.50
2022-09-01T18:38:39.570Z,101052.81
2022-09-01T18:41:27.332Z,101055.56
2022-09-01T18:44:19.252Z,101060.81
2022-09-01T18:47:08.126Z,101059.13
2022-09-01T18:49:50.411Z,101056.56
2022-09-01T18:53:00.162Z,101067.91
2022-09-01T18:55:38.542Z,101067.09
2022-09-01T18:58:11.368Z,101061.06
2022-09-01T19:00:54.089Z,101066.28
2022-09-01T19:04:17.332Z,101068.97
2022-09-01T19:07:04.028Z,101063.91
2022-09-01T19:09:34.786Z,101074.38
2022-09-01T19:12:10.687Z,101074.28
2022-09-01T19:15:11.653Z,101079.63
2022-09-01T19:18:05.587Z,101076.16
2022-09-01T19:20:57.088Z,101080.56
2022-09-01T19:23:50.825Z,101082.31
2022-09-01T19:26:23.619Z,101086.72
2022-09-01T19:28:59.032Z,101074.56
2022-09-01T19:31:34.572Z,101085.03
2022-09-01T19:34:09.651Z,101084.19
2022-09-01T19:36:45.719Z,101089.44
2022-09-01T19:39:20.236Z,101085.09
2022-09-01T19:42:06.433Z,101080.06
2022-09-01T19:45:06.648Z,101090.47
2022-09-01T19:47:56.048Z,101095.84
2022-09-01T19:50:42.069Z,101096.84
2022-09-01T19:53:11.943Z,101091.72
2022-09-01T19:55:58.591Z,101093.56
2022-09-01T19:58:34.621Z,101094.59
2022-09-01T20:01:05.961Z,101072.41
2022-09-01T20:03:41.395Z,101098.31
2022-09-01T20:06:14.163Z,101098.47
2022-09-01T20:08:55.895Z,101100.34
2022-09-01T20:11:50.787Z,101091.91
2022-09-01T20:14:36.029Z,101104.22
2022-09-01T20:17:07.035Z,101107.00
2022-09-01T20:19:46.054Z,101107.19
2022-09-01T20:22:18.326Z,101103.06
2022-09-01T20:24:45.838Z,101112.66
2022-09-01T20:27:19.013Z,101110.09
2022-09-01T20:30:12.385Z,101111.03
2022-09-01T20:33:17.128Z,101118.94
2022-09-01T20:35:49.670Z,101115.56
2022-09-01T20:39:04.511Z,101115.72
2022-09-01T20:42:04.349Z,101117.56
2022-09-01T20:44:50.547Z,101124.63
2022-09-01T20:47:17.683Z,101124.69
2022-09-01T20:49:45.941Z,101116.00
2022-09-01T20:52:20.006Z,101123.75
2022-09-01T20:55:09.583Z,101123.84
2022-09-01T20:58:18.215Z,101128.44
2022-09-01T21:01:17.963Z,101125.03
2022-09-01T21:03:54.468Z,101128.63
2022-09-01T21:06:45.203Z,101126.91
2022-09-01T21:09:18.142Z,101138.22
2022-09-01T21:11:57.258Z,101133.97
2022-09-01T21:14:42.776Z,101135.78
2022-09-01T21:17:28.526Z,101131.56
2022-09-01T21:20:22.135Z,101131.69
2022-09-01T21:22:50.480Z,101120.59
2022-09-01T21:25:17.622Z,101133.63
2022-09-01T21:27:52.297Z,101134.56
2022-09-01T21:30:20.588Z,101145.16
2022-09-01T21:32:48.270Z,101135.66
2022-09-01T21:35:19.158Z,101145.28
2022-09-01T21:37:46.289Z,101143.53
2022-09-01T21:40:14.449Z,101143.66
2022-09-01T21:42:48.841Z,101151.59
2022-09-01T21:45:19.085Z,101138.66
2022-09-01T21:47:48.202Z,101131.81
2022-09-01T21:50:17.551Z,101142.19
2022-09-01T21:52:44.736Z,101140.44
2022-09-01T21:55:12.641Z,101137.94
2022-09-01T21:57:39.905Z,101145.81
2022-09-01T22:00:13.714Z,101145.81
2022-09-01T22:02:45.516Z,101159.72
2022-09-01T22:05:13.202Z,101148.50
2022-09-01T22:07:43.395Z,101144.22
2022-09-01T22:10:14.401Z,101158.09
2022-09-01T22:12:43.548Z,101152.88
2022-09-01T22:15:12.628Z,101151.16
2022-09-01T22:17:40.048Z,101154.63
2022-09-01T22:20:09.756Z,101154.72
2022-09-01T22:22:37.363Z,101140.94
2022-09-01T22:25:07.843Z,101150.53
2022-09-01T22:27:35.122Z,101146.25
2022-09-01T22:30:03.283Z,101149.72
2022-09-01T22:32:33.045Z,101145.50
2022-09-01T22:35:02.813Z,101137.72
2022-09-01T22:37:30.106Z,101143.00
2022-09-01T22:39:57.293Z,101139.63
2022-09-01T22:42:25.250Z,101141.41
2022-09-01T22:44:52.586Z,101138.81
2022-09-01T22:47:19.755Z,101139.66
2022-09-01T22:49:46.846Z,101139.75
2022-09-01T22:52:14.439Z,101139.84
2022-09-01T22:54:41.665Z,101136.38
2022-09-01T22:57:08.852Z,101136.38
2022-09-01T22:59:36.039Z,101128.63
2022-09-01T23:02:03.456Z,101134.63
2022-09-01T23:04:32.328Z,101127.69
2022-09-01T23:06:59.785Z,101125.91
2022-09-01T23:09:26.901Z,101131.09
2022-09-01T23:11:53.973Z,101128.50
2022-09-01T23:14:21.045Z,101131.03
2022-09-01T23:16:51.379Z,101131.03
2022-09-01T23:19:21.282Z,101129.28
2022-09-01T23:21:49.083Z,101125.78
2022-09-01T23:24:19.884Z,101092.97
2022-09-01T23:26:48.183Z,101118.78
2022-09-01T23:29:15.372Z,101095.47
2022-09-01T23:31:43.976Z,101111.00
2022-09-01T23:34:13.545Z,101122.28
2022-09-01T23:36:40.975Z,101115.31
2022-09-01T23:39:08.322Z,101108.41
2022-09-01T23:41:37.528Z,101113.63
2022-09-01T23:44:07.262Z,101118.78
2022-09-01T23:46:43.545Z,101125.78
2022-09-01T23:49:12.155Z,101106.84
2022-09-01T23:51:39.493Z,101125.88
2022-09-01T23:54:07.298Z,101129.44
2022-09-01T23:56:34.743Z,101130.38
2022-09-01T23:59:02.423Z,101126.06
